createdAt,value
2017-08-04T00:01:18.656Z,20.91
2017-08-04T00:03:46.623Z,20.92
2017-08-04T00:06:14.254Z,20.96
2017-08-04T00:08:41.880Z,20.95
2017-08-04T00:11:09.573Z,20.90
2017-08-04T00:13:37.203Z,20.85
2017-08-04T00:16:04.981Z,20.75
2017-08-04T00:18:32.667Z,20.79
2017-08-04T00:21:00.291Z,20.70
2017-08-04T00:23:28.233Z,20.73
2017-08-04T00:25:55.978Z,20.73
2017-08-04T00:28:23.997Z,20.64
2017-08-04T00:30:51.831Z,20.57
2017-08-04T00:33:19.577Z,20.55
2017-08-04T00:35:47.543Z,20.58
2017-08-04T00:38:15.462Z,20.58
2017-08-04T00:40:43.536Z,20.47
2017-08-04T00:43:11.593Z,20.39
2017-08-04T00:45:39.336Z,20.29
2017-08-04T00:48:07.340Z,20.19
2017-08-04T00:50:35.195Z,20.26
2017-08-04T00:53:03.189Z,20.22
2017-08-04T00:55:30.864Z,20.14
2017-08-04T00:57:58.535Z,20.11
2017-08-04T01:00:26.439Z,20.01
2017-08-04T01:02:54.135Z,20.16
2017-08-04T01:05:21.970Z,20.18
2017-08-04T01:07:49.716Z,20.10
2017-08-04T01:10:17.682Z,20.01
2017-08-04T01:12:45.602Z,19.96
2017-08-04T01:15:13.225Z,19.91
2017-08-04T01:17:40.932Z,19.85
2017-08-04T01:20:08.541Z,19.82
2017-08-04T01:22:36.157Z,19.90
2017-08-04T01:25:03.833Z,19.86
2017-08-04T01:27:31.479Z,19.85
2017-08-04T01:29:59.108Z,19.80
2017-08-04T01:32:26.772Z,19.83
2017-08-04T01:34:54.401Z,19.80
2017-08-04T01:37:22.020Z,19.72
2017-08-04T01:39:49.892Z,19.65
2017-08-04T01:42:17.633Z,19.71
2017-08-04T01:44:45.277Z,19.81
2017-08-04T01:47:12.987Z,19.75
2017-08-04T01:49:40.596Z,19.69
2017-08-04T01:52:08.213Z,19.65
2017-08-04T01:54:35.892Z,19.59
2017-08-04T01:57:03.524Z,19.63
2017-08-04T01:59:32.060Z,19.58
2017-08-04T02:01:59.748Z,19.46
2017-08-04T02:04:27.377Z,19.42
2017-08-04T02:06:55.098Z,19.41
2017-08-04T02:09:22.772Z,19.42
2017-08-04T02:11:50.391Z,19.42
2017-08-04T02:14:17.990Z,19.46
2017-08-04T02:16:45.657Z,19.41
2017-08-04T02:19:13.272Z,19.37
2017-08-04T02:21:40.923Z,19.32
2017-08-04T02:24:08.628Z,19.31
2017-08-04T02:26:36.256Z,19.33
2017-08-04T02:29:03.880Z,19.30
2017-08-04T02:31:31.606Z,19.27
2017-08-04T02:33:59.225Z,19.24
2017-08-04T02:36:26.851Z,19.25
2017-08-04T02:38:54.543Z,19.17
2017-08-04T02:41:22.172Z,19.22
2017-08-04T02:43:49.786Z,19.17
2017-08-04T02:46:17.529Z,19.23
2017-08-04T02:48:45.160Z,19.24
2017-08-04T02:51:12.769Z,19.18
2017-08-04T02:53:40.443Z,19.09
2017-08-04T02:56:08.104Z,19.13
2017-08-04T02:58:35.731Z,19.20
2017-08-04T03:01:03.416Z,19.13
2017-08-04T03:03:31.032Z,19.17
2017-08-04T03:05:58.672Z,19.31
2017-08-04T03:08:26.354Z,19.31
2017-08-04T03:10:53.976Z,19.15
2017-08-04T03:13:21.604Z,18.95
2017-08-04T03:15:49.278Z,18.83
2017-08-04T03:18:16.890Z,18.88
2017-08-04T03:20:44.501Z,18.93
2017-08-04T03:23:12.185Z,18.97
2017-08-04T03:25:39.816Z,19.12
2017-08-04T03:28:07.445Z,19.15
2017-08-04T03:30:35.189Z,19.13
2017-08-04T03:33:02.802Z,19.10
2017-08-04T03:35:30.432Z,19.22
2017-08-04T03:37:58.097Z,19.25
2017-08-04T03:40:25.734Z,19.39
2017-08-04T03:42:53.355Z,19.43
2017-08-04T03:45:21.042Z,19.44
2017-08-04T03:47:48.728Z,19.52
2017-08-04T03:50:16.352Z,19.65
2017-08-04T03:52:44.025Z,19.80
2017-08-04T03:55:11.639Z,20.65
2017-08-04T03:57:39.469Z,22.75
2017-08-04T04:00:07.423Z,24.66
2017-08-04T04:02:35.025Z,25.95
2017-08-04T04:05:02.648Z,26.96
2017-08-04T04:07:30.305Z,27.45
2017-08-04T04:09:57.910Z,28.00
2017-08-04T04:12:25.536Z,28.35
2017-08-04T04:14:53.207Z,28.44
2017-08-04T04:17:20.824Z,28.79
2017-08-04T04:19:48.430Z,29.40
2017-08-04T04:22:16.136Z,29.84
2017-08-04T04:24:43.753Z,29.87
2017-08-04T04:27:11.392Z,30.00
2017-08-04T04:29:39.107Z,30.65
2017-08-04T04:32:06.752Z,31.48
2017-08-04T04:34:34.507Z,31.01
2017-08-04T04:37:02.171Z,31.52
2017-08-04T04:39:29.797Z,31.40
2017-08-04T04:41:57.416Z,31.69
2017-08-04T04:44:25.089Z,31.96
2017-08-04T04:46:52.704Z,32.26
2017-08-04T04:49:20.321Z,32.32
2017-08-04T04:51:47.996Z,32.52
2017-08-04T04:54:15.623Z,32.65
2017-08-04T04:56:43.241Z,33.35
2017-08-04T04:59:10.921Z,32.96
2017-08-04T05:01:38.545Z,33.56
2017-08-04T05:04:06.161Z,34.23
2017-08-04T05:06:33.840Z,33.98
2017-08-04T05:09:01.467Z,35.29
2017-08-04T05:11:29.086Z,35.43
2017-08-04T05:13:56.749Z,36.28
2017-08-04T05:16:24.354Z,36.67
2017-08-04T05:18:51.957Z,36.73
2017-08-04T05:21:19.632Z,37.61
2017-08-04T05:23:47.251Z,38.23
2017-08-04T05:26:14.852Z,37.44
2017-08-04T05:28:42.541Z,37.88
2017-08-04T05:31:10.172Z,37.89
2017-08-04T05:33:37.811Z,38.69
2017-08-04T05:36:05.589Z,38.44
2017-08-04T05:38:33.274Z,38.17
2017-08-04T05:41:00.931Z,38.93
2017-08-04T05:43:28.597Z,38.97
2017-08-04T05:45:56.216Z,40.15
2017-08-04T05:48:23.821Z,39.56
2017-08-04T05:50:51.638Z,39.05
2017-08-04T05:53:19.267Z,38.91
2017-08-04T05:55:46.894Z,39.59
2017-08-04T05:58:14.577Z,39.49
2017-08-04T06:00:42.212Z,38.88
2017-08-04T06:03:09.885Z,39.24
2017-08-04T06:05:37.568Z,38.60
2017-08-04T06:08:05.185Z,39.81
2017-08-04T06:10:32.795Z,40.09
2017-08-04T06:13:00.477Z,40.46
2017-08-04T06:15:28.104Z,39.83
2017-08-04T06:17:55.720Z,40.64
2017-08-04T06:20:23.366Z,40.78
2017-08-04T06:22:50.994Z,40.66
2017-08-04T06:25:18.605Z,40.52
2017-08-04T06:27:46.279Z,40.01
2017-08-04T06:30:13.886Z,40.22
2017-08-04T06:32:41.514Z,40.38
2017-08-04T06:35:09.186Z,40.67
2017-08-04T06:37:36.787Z,40.19
2017-08-04T06:40:04.421Z,40.63
2017-08-04T06:42:32.087Z,40.83
2017-08-04T06:44:59.716Z,41.06
2017-08-04T06:47:27.342Z,41.67
2017-08-04T06:50:06.730Z,41.67
2017-08-04T06:52:46.233Z,41.67
2017-08-04T06:55:35.743Z,40.94
2017-08-04T06:58:03.377Z,41.06
2017-08-04T07:00:30.996Z,40.89
2017-08-04T07:02:58.669Z,41.52
2017-08-04T07:05:26.277Z,41.73
2017-08-04T07:07:53.896Z,42.32
2017-08-04T07:10:21.567Z,41.26
2017-08-04T07:12:49.174Z,41.22
2017-08-04T07:15:16.773Z,41.83
2017-08-04T07:17:44.439Z,41.87
2017-08-04T07:20:12.056Z,41.42
2017-08-04T07:22:39.662Z,41.44
2017-08-04T07:25:07.329Z,42.44
2017-08-04T07:27:34.960Z,42.85
2017-08-04T07:30:02.594Z,43.65
2017-08-04T07:32:30.260Z,44.30
2017-08-04T07:34:57.873Z,43.83
2017-08-04T07:37:25.483Z,43.89
2017-08-04T07:39:53.167Z,43.79
2017-08-04T07:42:20.776Z,44.78
2017-08-04T07:44:48.401Z,44.67
2017-08-04T07:47:16.102Z,44.25
2017-08-04T07:49:43.755Z,44.29
2017-08-04T07:52:11.372Z,43.68
2017-08-04T07:54:39.140Z,44.34
2017-08-04T07:57:06.769Z,44.12
2017-08-04T07:59:34.390Z,43.45
2017-08-04T08:02:02.045Z,44.43
2017-08-04T08:04:29.715Z,44.24
2017-08-04T08:06:57.334Z,43.82
2017-08-04T08:09:25.008Z,43.80
2017-08-04T08:11:52.619Z,44.52
2017-08-04T08:14:20.239Z,44.59
2017-08-04T08:16:47.882Z,44.41
2017-08-04T08:19:15.489Z,44.51
2017-08-04T08:21:43.093Z,44.96
2017-08-04T08:24:10.763Z,44.10
2017-08-04T08:26:38.363Z,44.61
2017-08-04T08:29:05.968Z,44.60
2017-08-04T08:31:33.646Z,44.72
2017-08-04T08:34:01.268Z,44.68
2017-08-04T08:36:28.885Z,44.68
2017-08-04T08:38:56.575Z,44.51
2017-08-04T08:41:24.253Z,44.32
2017-08-04T08:43:51.881Z,44.78
2017-08-04T08:46:19.557Z,44.01
2017-08-04T08:48:47.153Z,44.42
2017-08-04T08:51:14.765Z,44.69
2017-08-04T08:53:42.422Z,45.39
2017-08-04T08:56:10.088Z,45.24
2017-08-04T08:58:37.690Z,45.86
2017-08-04T09:01:05.349Z,46.31
2017-08-04T09:03:32.937Z,46.11
2017-08-04T09:06:00.524Z,46.69
2017-08-04T09:08:28.339Z,46.58
2017-08-04T09:10:55.976Z,46.10
2017-08-04T09:13:23.595Z,45.29
2017-08-04T09:15:51.268Z,44.67
2017-08-04T09:18:18.892Z,45.30
2017-08-04T09:20:46.516Z,45.65
2017-08-04T09:23:14.186Z,45.90
2017-08-04T09:25:41.805Z,44.70
2017-08-04T09:28:09.428Z,44.95
2017-08-04T09:30:37.084Z,44.49
2017-08-04T09:33:04.778Z,45.25
2017-08-04T09:35:32.399Z,44.44
2017-08-04T09:38:00.088Z,44.94
2017-08-04T09:40:27.702Z,45.23
2017-08-04T09:42:55.323Z,45.24
2017-08-04T09:45:23.681Z,45.55
2017-08-04T09:47:51.361Z,45.47
2017-08-04T09:50:18.969Z,44.76
2017-08-04T09:52:46.643Z,45.35
2017-08-04T09:55:14.259Z,44.70
2017-08-04T09:57:42.144Z,45.94
2017-08-04T10:00:09.828Z,46.10
2017-08-04T10:02:37.434Z,45.38
2017-08-04T10:05:05.034Z,45.14
2017-08-04T10:07:32.720Z,45.75
2017-08-04T10:10:00.334Z,45.03
2017-08-04T10:12:27.948Z,44.78
2017-08-04T10:14:55.637Z,45.17
2017-08-04T10:17:23.262Z,45.22
2017-08-04T10:19:50.877Z,45.03
2017-08-04T10:22:18.585Z,44.86
2017-08-04T10:24:46.190Z,45.90
2017-08-04T10:27:15.921Z,46.31
2017-08-04T10:29:43.799Z,45.77
2017-08-04T10:32:11.450Z,46.25
2017-08-04T10:34:39.059Z,46.57
2017-08-04T10:37:06.721Z,46.67
2017-08-04T10:39:34.329Z,46.12
2017-08-04T10:42:01.941Z,45.66
2017-08-04T10:44:29.610Z,45.01
2017-08-04T10:46:57.209Z,45.03
2017-08-04T10:49:24.806Z,45.45
2017-08-04T10:51:52.476Z,43.33
2017-08-04T10:54:20.091Z,43.94
2017-08-04T10:56:47.697Z,46.64
2017-08-04T10:59:15.602Z,46.56
2017-08-04T11:01:43.232Z,46.53
2017-08-04T11:04:10.835Z,46.25
2017-08-04T11:06:38.509Z,45.49
2017-08-04T11:09:06.168Z,45.36
2017-08-04T11:11:33.779Z,45.19
2017-08-04T11:14:01.452Z,45.11
2017-08-04T11:16:29.070Z,45.40
2017-08-04T11:18:56.674Z,45.92
2017-08-04T11:21:24.615Z,45.89
2017-08-04T11:23:52.229Z,46.50
2017-08-04T11:26:19.846Z,46.84
2017-08-04T11:28:47.554Z,46.90
2017-08-04T11:31:15.166Z,46.72
2017-08-04T11:33:42.775Z,45.50
2017-08-04T11:36:10.451Z,45.74
2017-08-04T11:38:38.060Z,46.13
2017-08-04T11:41:05.679Z,45.09
2017-08-04T11:43:33.356Z,45.11
2017-08-04T11:46:00.980Z,45.15
2017-08-04T11:48:28.598Z,44.75
2017-08-04T11:50:56.268Z,44.31
2017-08-04T11:53:23.884Z,44.17
2017-08-04T11:55:51.515Z,43.71
2017-08-04T11:58:19.201Z,44.54
2017-08-04T12:00:46.863Z,43.99
2017-08-04T12:03:14.479Z,43.68
2017-08-04T12:05:42.161Z,44.22
2017-08-04T12:08:09.896Z,45.00
2017-08-04T12:10:37.868Z,45.51
2017-08-04T12:13:05.551Z,45.17
2017-08-04T12:15:33.165Z,44.44
2017-08-04T12:18:00.762Z,43.93
2017-08-04T12:20:28.432Z,43.89
2017-08-04T12:22:56.151Z,43.60
2017-08-04T12:25:23.768Z,42.91
2017-08-04T12:27:51.426Z,42.46
2017-08-04T12:30:19.060Z,42.83
2017-08-04T12:32:46.692Z,43.20
2017-08-04T12:35:14.359Z,42.56
2017-08-04T12:37:41.981Z,43.10
2017-08-04T12:40:09.601Z,43.80
2017-08-04T12:42:37.272Z,44.71
2017-08-04T12:45:04.879Z,43.77
2017-08-04T12:47:32.486Z,42.95
2017-08-04T12:50:00.169Z,42.80
2017-08-04T12:52:27.784Z,43.70
2017-08-04T12:54:55.383Z,43.82
2017-08-04T12:57:23.056Z,43.16
2017-08-04T12:59:50.849Z,41.17
2017-08-04T13:02:18.537Z,40.65
2017-08-04T13:04:46.203Z,39.74
2017-08-04T13:07:13.801Z,39.41
2017-08-04T13:09:41.397Z,39.17
2017-08-04T13:12:09.045Z,38.91
2017-08-04T13:14:36.663Z,38.98
2017-08-04T13:17:04.292Z,38.93
2017-08-04T13:19:31.953Z,38.29
2017-08-04T13:21:59.559Z,38.39
2017-08-04T13:24:27.172Z,38.12
2017-08-04T13:26:54.832Z,37.87
2017-08-04T13:29:22.426Z,37.73
2017-08-04T13:31:50.006Z,37.92
2017-08-04T13:34:17.652Z,37.94
2017-08-04T13:36:45.264Z,38.10
2017-08-04T13:39:12.871Z,37.88
2017-08-04T13:41:40.534Z,37.97
2017-08-04T13:44:08.248Z,38.04
2017-08-04T13:46:35.867Z,38.09
2017-08-04T13:49:03.517Z,38.14
2017-08-04T13:51:31.255Z,38.15
2017-08-04T13:53:59.220Z,38.14
2017-08-04T13:56:26.919Z,38.20
2017-08-04T13:58:54.525Z,37.98
2017-08-04T14:01:22.115Z,37.92
2017-08-04T14:03:49.905Z,37.63
2017-08-04T14:06:17.506Z,37.73
2017-08-04T14:08:45.445Z,37.72
2017-08-04T14:11:13.105Z,37.74
2017-08-04T14:13:40.769Z,37.81
2017-08-04T14:16:08.362Z,37.92
2017-08-04T14:18:36.021Z,37.95
2017-08-04T14:21:03.861Z,37.98
2017-08-04T14:23:31.723Z,37.68
2017-08-04T14:25:59.486Z,37.68
2017-08-04T14:28:27.358Z,37.66
2017-08-04T14:30:55.200Z,37.70
2017-08-04T14:33:24.791Z,37.52
2017-08-04T14:35:52.395Z,37.52
2017-08-04T14:38:19.996Z,37.61
2017-08-04T14:40:47.710Z,37.57
2017-08-04T14:43:15.327Z,37.50
2017-08-04T14:45:42.943Z,37.38
2017-08-04T14:48:10.632Z,37.42
2017-08-04T14:50:38.236Z,37.31
2017-08-04T14:53:05.845Z,37.23
2017-08-04T14:55:33.511Z,37.29
2017-08-04T14:58:01.115Z,37.39
2017-08-04T15:00:29.010Z,37.34
2017-08-04T15:02:56.867Z,37.34
2017-08-04T15:05:24.796Z,37.17
2017-08-04T15:07:52.660Z,37.26
2017-08-04T15:10:20.630Z,37.33
2017-08-04T15:12:48.449Z,37.20
2017-08-04T15:15:16.312Z,37.08
2017-08-04T15:17:44.288Z,37.18
2017-08-04T15:20:12.123Z,37.25
2017-08-04T15:22:40.019Z,37.10
2017-08-04T15:25:07.881Z,37.05
2017-08-04T15:27:35.602Z,37.02
2017-08-04T15:30:03.439Z,36.85
2017-08-04T15:32:31.463Z,36.81
2017-08-04T15:34:59.211Z,36.89
2017-08-04T15:37:27.001Z,36.80
2017-08-04T15:39:54.675Z,36.70
2017-08-04T15:42:22.504Z,36.71
2017-08-04T15:44:50.209Z,36.70
2017-08-04T15:47:18.298Z,36.68
2017-08-04T15:49:45.906Z,36.63
2017-08-04T15:52:13.513Z,36.52
2017-08-04T15:54:41.159Z,36.38
2017-08-04T15:57:08.747Z,36.35
2017-08-04T15:59:36.366Z,36.31
2017-08-04T16:02:04.024Z,36.23
2017-08-04T16:04:31.619Z,36.15
2017-08-04T16:06:59.781Z,35.95
2017-08-04T16:09:27.854Z,35.83
2017-08-04T16:11:55.461Z,35.74
2017-08-04T16:14:23.080Z,35.55
2017-08-04T16:16:50.738Z,35.34
2017-08-04T16:19:18.346Z,35.10
2017-08-04T16:21:45.962Z,34.90
2017-08-04T16:24:13.621Z,34.73
2017-08-04T16:26:41.217Z,34.61
2017-08-04T16:29:08.877Z,34.37
2017-08-04T16:31:36.525Z,34.23
2017-08-04T16:34:04.130Z,33.86
2017-08-04T16:36:31.748Z,33.54
2017-08-04T16:38:59.412Z,33.43
2017-08-04T16:41:27.011Z,33.29
2017-08-04T16:43:54.612Z,33.05
2017-08-04T16:46:22.281Z,32.87
2017-08-04T16:48:51.634Z,32.68
2017-08-04T16:51:19.437Z,32.46
2017-08-04T16:53:47.100Z,32.26
2017-08-04T16:56:14.720Z,32.02
2017-08-04T16:58:42.332Z,31.77
2017-08-04T17:01:10.003Z,31.64
2017-08-04T17:03:37.596Z,31.42
2017-08-04T17:06:05.203Z,31.23
2017-08-04T17:08:32.869Z,31.06
2017-08-04T17:11:00.472Z,30.97
2017-08-04T17:13:28.137Z,30.74
2017-08-04T17:15:55.829Z,30.59
2017-08-04T17:18:23.465Z,30.33
2017-08-04T17:20:51.084Z,30.15
2017-08-04T17:23:18.741Z,29.99
2017-08-04T17:25:46.335Z,29.76
2017-08-04T17:28:13.944Z,29.61
2017-08-04T17:30:41.595Z,29.49
2017-08-04T17:33:09.187Z,29.38
2017-08-04T17:35:36.806Z,29.23
2017-08-04T17:38:04.470Z,29.15
2017-08-04T17:40:32.069Z,29.07
2017-08-04T17:42:59.683Z,28.92
2017-08-04T17:45:27.575Z,28.76
2017-08-04T17:47:55.182Z,28.66
2017-08-04T17:50:22.784Z,28.53
2017-08-04T17:52:50.437Z,28.39
2017-08-04T17:55:18.037Z,28.31
2017-08-04T17:57:45.633Z,28.22
2017-08-04T18:00:13.297Z,28.18
2017-08-04T18:02:52.666Z,28.08
2017-08-04T18:05:20.333Z,28.03
2017-08-04T18:07:47.935Z,28.01
2017-08-04T18:10:16.462Z,27.93
2017-08-04T18:12:44.196Z,27.80
2017-08-04T18:15:11.816Z,27.73
2017-08-04T18:17:39.447Z,27.68
2017-08-04T18:20:07.102Z,27.57
2017-08-04T18:22:34.728Z,27.53
2017-08-04T18:25:02.345Z,27.49
2017-08-04T18:27:30.021Z,27.46
2017-08-04T18:29:57.629Z,27.45
2017-08-04T18:32:25.222Z,27.42
2017-08-04T18:34:52.893Z,27.38
2017-08-04T18:37:20.485Z,27.38
2017-08-04T18:39:48.076Z,27.24
2017-08-04T18:42:15.802Z,27.18
2017-08-04T18:44:43.547Z,27.16
2017-08-04T18:47:11.155Z,27.10
2017-08-04T18:49:38.806Z,27.10
2017-08-04T18:52:06.415Z,27.08
2017-08-04T18:54:34.031Z,26.99
2017-08-04T18:57:01.719Z,26.91
2017-08-04T18:59:29.345Z,26.86
2017-08-04T19:01:56.940Z,26.76
2017-08-04T19:04:24.654Z,26.65
2017-08-04T19:06:52.262Z,26.57
2017-08-04T19:09:19.889Z,26.37
2017-08-04T19:11:47.607Z,26.27
2017-08-04T19:14:15.221Z,26.14
2017-08-04T19:16:42.829Z,26.05
2017-08-04T19:19:10.487Z,25.92
2017-08-04T19:21:38.104Z,25.84
2017-08-04T19:24:05.864Z,25.73
2017-08-04T19:26:33.622Z,25.67
2017-08-04T19:29:01.238Z,25.61
2017-08-04T19:31:29.188Z,25.55
2017-08-04T19:33:58.613Z,25.49
2017-08-04T19:36:27.702Z,25.44
2017-08-04T19:38:56.670Z,25.44
2017-08-04T19:41:24.887Z,25.39
2017-08-04T19:43:53.225Z,25.36
2017-08-04T19:46:21.883Z,25.32
2017-08-04T19:48:50.480Z,25.23
2017-08-04T19:51:18.168Z,25.12
2017-08-04T19:53:46.723Z,25.09
2017-08-04T19:56:15.247Z,25.03
2017-08-04T19:58:42.994Z,24.99
2017-08-04T20:01:11.469Z,24.95
2017-08-04T20:03:39.210Z,24.94
2017-08-04T20:06:07.565Z,24.83
2017-08-04T20:08:36.035Z,24.84
2017-08-04T20:11:04.939Z,24.82
2017-08-04T20:13:33.763Z,24.80
2017-08-04T20:16:01.457Z,24.77
2017-08-04T20:18:29.100Z,24.73
2017-08-04T20:20:56.724Z,24.65
2017-08-04T20:23:24.312Z,24.56
2017-08-04T20:25:52.441Z,24.46
2017-08-04T20:28:20.026Z,24.45
2017-08-04T20:30:47.633Z,24.49
2017-08-04T20:33:15.284Z,24.51
2017-08-04T20:35:42.912Z,24.50
2017-08-04T20:38:10.510Z,24.49
2017-08-04T20:40:38.198Z,24.43
2017-08-04T20:43:05.814Z,24.37
2017-08-04T20:45:33.424Z,24.32
2017-08-04T20:48:01.093Z,24.36
2017-08-04T20:50:28.694Z,24.32
2017-08-04T20:52:56.614Z,24.30
2017-08-04T20:55:24.311Z,24.22
2017-08-04T20:57:51.924Z,24.19
2017-08-04T21:00:19.533Z,24.19
2017-08-04T21:02:47.193Z,24.21
2017-08-04T21:05:14.823Z,24.21
2017-08-04T21:07:42.432Z,24.11
2017-08-04T21:10:10.102Z,24.04
2017-08-04T21:12:37.710Z,23.88
2017-08-04T21:15:05.698Z,23.85
2017-08-04T21:17:33.774Z,23.82
2017-08-04T21:20:01.440Z,23.79
2017-08-04T21:22:29.165Z,23.81
2017-08-04T21:24:56.963Z,23.80
2017-08-04T21:27:24.826Z,23.77
2017-08-04T21:29:52.928Z,23.75
2017-08-04T21:32:20.570Z,23.77
2017-08-04T21:34:48.228Z,23.79
2017-08-04T21:37:16.127Z,23.83
2017-08-04T21:39:43.964Z,23.81
2017-08-04T21:42:11.626Z,23.78
2017-08-04T21:44:39.285Z,23.80
2017-08-04T21:47:06.957Z,23.81
2017-08-04T21:49:34.561Z,23.82
2017-08-04T21:52:02.283Z,23.78
2017-08-04T21:54:29.937Z,23.85
2017-08-04T21:56:57.600Z,23.74
2017-08-04T21:59:25.470Z,23.66
2017-08-04T22:01:53.315Z,23.74
2017-08-04T22:04:21.180Z,23.75
2017-08-04T22:06:48.864Z,23.69
2017-08-04T22:09:16.513Z,23.73
2017-08-04T22:11:44.114Z,23.74
2017-08-04T22:14:11.806Z,23.70
2017-08-04T22:16:39.921Z,23.65
2017-08-04T22:19:07.804Z,23.54
2017-08-04T22:21:35.865Z,23.50
2017-08-04T22:24:03.836Z,23.51
2017-08-04T22:26:31.453Z,23.55
2017-08-04T22:28:59.117Z,23.47
2017-08-04T22:31:26.968Z,23.47
2017-08-04T22:33:54.883Z,23.39
2017-08-04T22:36:22.856Z,23.34
2017-08-04T22:38:50.885Z,23.28
2017-08-04T22:41:18.570Z,23.21
2017-08-04T22:43:46.232Z,23.19
2017-08-04T22:46:13.855Z,23.15
2017-08-04T22:48:41.468Z,23.12
2017-08-04T22:51:09.381Z,23.03
2017-08-04T22:53:37.011Z,22.98
2017-08-04T22:56:04.670Z,23.01
2017-08-04T22:58:32.353Z,22.89
2017-08-04T23:00:59.970Z,22.92
2017-08-04T23:03:27.818Z,22.93
2017-08-04T23:05:55.806Z,22.94
2017-08-04T23:08:23.552Z,22.91
2017-08-04T23:10:51.465Z,22.86
2017-08-04T23:13:19.281Z,22.82
2017-08-04T23:15:47.034Z,22.85
2017-08-04T23:18:14.661Z,22.88
2017-08-04T23:20:42.395Z,22.81
2017-08-04T23:23:10.124Z,22.73
2017-08-04T23:25:37.733Z,22.71
2017-08-04T23:28:05.417Z,22.74
2017-08-04T23:30:33.006Z,22.73
2017-08-04T23:33:00.605Z,22.77
2017-08-04T23:35:28.284Z,22.78
2017-08-04T23:37:55.905Z,22.77
2017-08-04T23:40:23.579Z,22.67
2017-08-04T23:42:51.245Z,22.66
2017-08-04T23:45:18.857Z,22.58
2017-08-04T23:47:46.483Z,22.48
2017-08-04T23:50:14.162Z,22.44
2017-08-04T23:52:41.773Z,22.46
2017-08-04T23:55:09.383Z,22.49
2017-08-04T23:57:37.046Z,22.43
